createdAt,value
2017-03-31T00:00:38.389Z,99.90
2017-03-31T00:01:36.903Z,99.90
2017-03-31T00:02:35.393Z,99.90
2017-03-31T00:03:34.652Z,99.90
2017-03-31T00:04:33.148Z,99.90
2017-03-31T00:05:32.066Z,99.90
2017-03-31T00:06:30.576Z,99.90
2017-03-31T00:07:29.866Z,99.90
2017-03-31T00:08:29.113Z,99.90
2017-03-31T00:09:28.392Z,99.90
2017-03-31T00:10:26.917Z,99.90
2017-03-31T00:11:26.919Z,99.90
2017-03-31T00:12:25.381Z,99.90
2017-03-31T00:13:24.604Z,99.90
2017-03-31T00:14:23.105Z,99.90
2017-03-31T00:15:22.333Z,99.90
2017-03-31T00:16:21.612Z,99.90
2017-03-31T00:17:21.214Z,99.90
2017-03-31T00:18:19.793Z,99.90
2017-03-31T00:19:18.281Z,99.90
2017-03-31T00:20:17.527Z,99.90
2017-03-31T00:21:16.780Z,99.90
2017-03-31T00:22:16.054Z,99.90
2017-03-31T00:23:15.605Z,99.90
2017-03-31T00:24:14.076Z,99.90
2017-03-31T00:25:12.561Z,99.90
2017-03-31T00:26:11.851Z,99.90
2017-03-31T00:27:11.077Z,99.90
2017-03-31T00:28:10.318Z,99.90
2017-03-31T00:29:10.060Z,99.90
2017-03-31T00:30:08.532Z,99.90
2017-03-31T00:31:07.814Z,99.90
2017-03-31T00:32:07.037Z,99.90
2017-03-31T00:33:06.299Z,99.90
2017-03-31T00:34:05.561Z,99.90
2017-03-31T00:35:05.156Z,99.90
2017-03-31T00:36:04.432Z,99.90
2017-03-31T00:37:03.738Z,99.90
2017-03-31T00:38:02.260Z,99.90
2017-03-31T00:39:01.526Z,99.90
2017-03-31T00:39:59.999Z,99.90
2017-03-31T00:40:59.630Z,99.90
2017-03-31T00:41:58.900Z,99.90
2017-03-31T00:42:57.388Z,99.90
2017-03-31T00:43:55.880Z,99.90
2017-03-31T00:44:54.361Z,99.90
2017-03-31T00:45:53.615Z,99.90
2017-03-31T00:46:53.188Z,99.90
2017-03-31T00:47:51.658Z,99.90
2017-03-31T00:48:50.207Z,99.90
2017-03-31T00:49:48.688Z,99.90
2017-03-31T00:50:47.173Z,99.90
2017-03-31T00:51:46.435Z,99.90
2017-03-31T00:52:45.186Z,99.90
2017-03-31T00:53:43.743Z,99.90
2017-03-31T00:54:42.224Z,99.90
2017-03-31T00:55:40.736Z,99.90
2017-03-31T00:56:39.984Z,99.90
2017-03-31T00:57:38.477Z,99.90
2017-03-31T00:58:38.029Z,99.90
2017-03-31T00:59:37.282Z,99.90
2017-03-31T01:00:36.549Z,99.90
2017-03-31T01:01:35.815Z,99.90
2017-03-31T01:02:34.360Z,99.90
2017-03-31T01:03:32.812Z,99.90
2017-03-31T01:04:31.577Z,99.90
2017-03-31T01:05:30.163Z,99.90
2017-03-31T01:06:29.443Z,99.90
2017-03-31T01:07:27.948Z,99.90
2017-03-31T01:08:27.209Z,99.90
2017-03-31T01:09:27.210Z,99.90
2017-03-31T01:10:26.776Z,99.90
2017-03-31T01:11:26.031Z,99.90
2017-03-31T01:12:24.496Z,99.90
2017-03-31T01:13:22.984Z,99.90
2017-03-31T01:14:21.458Z,99.90
2017-03-31T01:15:20.147Z,99.90
2017-03-31T01:16:18.920Z,99.90
2017-03-31T01:17:17.444Z,99.90
2017-03-31T01:18:15.939Z,99.90
2017-03-31T01:19:15.184Z,99.90
2017-03-31T01:20:14.417Z,99.90
2017-03-31T01:21:13.653Z,99.90
2017-03-31T01:22:13.273Z,99.90
2017-03-31T01:23:11.741Z,99.90
2017-03-31T01:24:10.205Z,99.90
2017-03-31T01:25:09.433Z,99.90
2017-03-31T01:26:07.904Z,99.90
2017-03-31T01:27:07.141Z,99.90
2017-03-31T01:28:05.948Z,99.90
2017-03-31T01:29:05.221Z,99.90
2017-03-31T01:30:04.510Z,99.90
2017-03-31T01:31:03.760Z,99.90
2017-03-31T01:32:02.245Z,99.90
2017-03-31T01:33:00.713Z,99.90
2017-03-31T01:33:59.541Z,99.90
2017-03-31T01:34:58.773Z,99.90
2017-03-31T01:35:57.298Z,99.90
2017-03-31T01:36:55.807Z,99.90
2017-03-31T01:37:55.063Z,99.90
2017-03-31T01:38:53.557Z,99.90
2017-03-31T01:39:52.396Z,99.90
2017-03-31T01:40:50.892Z,99.90
2017-03-31T01:41:49.409Z,99.90
2017-03-31T01:42:48.668Z,99.90
2017-03-31T01:43:47.924Z,99.90
2017-03-31T01:44:46.395Z,99.90
2017-03-31T01:45:45.227Z,99.90
2017-03-31T01:46:43.727Z,99.90
2017-03-31T01:47:42.229Z,99.90
2017-03-31T01:48:40.735Z,99.90
2017-03-31T01:49:40.016Z,99.90
2017-03-31T01:50:38.500Z,99.90
2017-03-31T01:51:37.349Z,99.90
2017-03-31T01:52:35.825Z,99.90
2017-03-31T01:53:35.072Z,99.90
2017-03-31T01:54:33.574Z,99.90
2017-03-31T01:55:32.079Z,99.90
2017-03-31T01:56:31.353Z,99.90
2017-03-31T01:57:30.228Z,99.90
2017-03-31T01:58:28.794Z,99.90
2017-03-31T01:59:27.288Z,99.90
2017-03-31T02:00:25.761Z,99.90
2017-03-31T02:01:24.308Z,99.90
2017-03-31T02:02:23.576Z,99.90
2017-03-31T02:03:23.129Z,99.90
2017-03-31T02:04:22.649Z,99.90
2017-03-31T02:05:21.916Z,99.90
2017-03-31T02:06:20.411Z,99.90
2017-03-31T02:07:19.657Z,99.90
2017-03-31T02:08:19.071Z,99.90
2017-03-31T02:09:18.730Z,99.90
2017-03-31T02:10:17.256Z,99.90
2017-03-31T02:11:15.735Z,99.90
2017-03-31T02:12:14.209Z,99.90
2017-03-31T02:13:12.695Z,99.90
2017-03-31T02:14:11.200Z,99.90
2017-03-31T02:15:10.756Z,99.90
2017-03-31T02:16:09.246Z,99.90
2017-03-31T02:17:08.496Z,99.90
2017-03-31T02:18:06.999Z,99.90
2017-03-31T02:19:06.260Z,99.90
2017-03-31T02:20:04.744Z,99.90
2017-03-31T02:21:04.264Z,99.90
2017-03-31T02:22:02.763Z,99.90
2017-03-31T02:23:01.990Z,99.90
2017-03-31T02:24:01.228Z,99.90
2017-03-31T02:24:59.696Z,99.90
2017-03-31T02:25:58.517Z,99.90
2017-03-31T02:26:58.162Z,99.90
2017-03-31T02:27:57.406Z,99.90
2017-03-31T02:28:55.867Z,99.90
2017-03-31T02:29:55.119Z,99.90
2017-03-31T02:30:53.630Z,99.90
2017-03-31T02:31:52.880Z,99.90
2017-03-31T02:32:52.418Z,99.90
2017-03-31T02:33:51.660Z,99.90
2017-03-31T02:34:50.186Z,99.90
2017-03-31T02:35:48.681Z,99.90
2017-03-31T02:36:47.935Z,99.90
2017-03-31T02:37:47.162Z,99.90
2017-03-31T02:38:46.900Z,99.90
2017-03-31T02:39:45.353Z,99.90
2017-03-31T02:40:43.828Z,99.90
2017-03-31T02:41:42.295Z,99.90
2017-03-31T02:42:40.810Z,99.90
2017-03-31T02:43:40.118Z,99.90
2017-03-31T02:44:38.888Z,99.90
2017-03-31T02:45:37.348Z,99.90
2017-03-31T02:46:35.870Z,99.90
2017-03-31T02:47:35.144Z,99.90
2017-03-31T02:48:33.603Z,99.90
2017-03-31T02:49:32.081Z,99.90
2017-03-31T02:50:30.936Z,99.90
2017-03-31T02:51:29.411Z,99.90
2017-03-31T02:52:27.877Z,99.90
2017-03-31T02:53:26.369Z,99.90
2017-03-31T02:54:24.862Z,99.90
2017-03-31T02:55:23.350Z,99.90
2017-03-31T02:56:22.129Z,99.90
2017-03-31T02:57:20.617Z,99.90
2017-03-31T02:58:19.064Z,99.90
2017-03-31T02:59:18.306Z,99.90
2017-03-31T03:00:17.559Z,99.90
2017-03-31T03:01:16.807Z,99.90
2017-03-31T03:02:15.593Z,99.90
2017-03-31T03:03:14.049Z,99.90
2017-03-31T03:04:13.297Z,99.90
2017-03-31T03:05:11.811Z,99.90
2017-03-31T03:06:11.820Z,99.90
2017-03-31T03:07:10.331Z,99.90
2017-03-31T03:08:09.956Z,99.90
2017-03-31T03:09:08.425Z,99.90
2017-03-31T03:10:07.649Z,99.90
2017-03-31T03:11:06.156Z,99.90
2017-03-31T03:12:04.660Z,99.90
2017-03-31T03:13:03.142Z,99.90
2017-03-31T03:14:02.709Z,99.90
2017-03-31T03:15:01.196Z,99.90
2017-03-31T03:15:59.665Z,99.90
2017-03-31T03:16:58.187Z,99.90
2017-03-31T03:17:56.676Z,99.90
2017-03-31T03:18:55.940Z,99.90
2017-03-31T03:19:54.809Z,99.90
2017-03-31T03:20:53.284Z,99.90
2017-03-31T03:21:51.922Z,99.90
2017-03-31T03:22:50.418Z,99.90
2017-03-31T03:23:48.886Z,99.90
2017-03-31T03:24:47.356Z,99.90
2017-03-31T03:25:46.213Z,99.90
2017-03-31T03:26:45.468Z,99.90
2017-03-31T03:27:44.032Z,99.90
2017-03-31T03:28:43.285Z,99.90
2017-03-31T03:29:41.791Z,99.90
2017-03-31T03:30:40.295Z,99.90
2017-03-31T03:31:39.872Z,99.90
2017-03-31T03:32:38.344Z,99.90
2017-03-31T03:33:36.849Z,99.90
2017-03-31T03:34:35.343Z,99.90
2017-03-31T03:35:34.614Z,99.90
2017-03-31T03:36:33.104Z,99.90
2017-03-31T03:37:31.881Z,99.90
2017-03-31T03:38:31.129Z,99.90
2017-03-31T03:39:30.387Z,99.90
2017-03-31T03:40:28.969Z,99.90
2017-03-31T03:41:28.265Z,99.90
2017-03-31T03:42:27.606Z,99.90
2017-03-31T03:43:26.479Z,99.90
2017-03-31T03:44:24.985Z,99.90
2017-03-31T03:45:24.231Z,99.90
2017-03-31T03:46:22.762Z,99.90
2017-03-31T03:47:22.100Z,99.90
2017-03-31T03:48:20.603Z,99.90
2017-03-31T03:49:19.393Z,99.90
2017-03-31T03:50:17.902Z,99.90
2017-03-31T03:51:17.168Z,99.90
2017-03-31T03:52:15.637Z,99.90
2017-03-31T03:53:14.092Z,99.90
2017-03-31T03:54:12.574Z,99.90
2017-03-31T03:55:12.145Z,99.90
2017-03-31T03:56:10.645Z,99.90
2017-03-31T03:57:09.897Z,99.90
2017-03-31T03:58:08.376Z,99.90
2017-03-31T03:59:07.615Z,99.90
2017-03-31T04:00:06.097Z,99.90
2017-03-31T04:01:04.973Z,99.90
2017-03-31T04:02:03.462Z,99.90
2017-03-31T04:03:01.938Z,99.90
2017-03-31T04:04:01.204Z,99.90
2017-03-31T04:05:00.500Z,99.90
2017-03-31T04:05:59.097Z,99.90
2017-03-31T04:06:59.762Z,99.90
2017-03-31T04:07:58.299Z,99.90
2017-03-31T04:08:56.877Z,99.90
2017-03-31T04:09:55.364Z,99.90
2017-03-31T04:10:54.633Z,99.90
2017-03-31T04:11:53.100Z,99.90
2017-03-31T04:12:52.691Z,99.90
2017-03-31T04:13:51.165Z,99.90
2017-03-31T04:14:49.643Z,99.90
2017-03-31T04:15:48.101Z,99.90
2017-03-31T04:16:48.984Z,99.90
2017-03-31T04:17:47.480Z,99.90
2017-03-31T04:18:46.352Z,99.90
2017-03-31T04:19:45.609Z,99.90
2017-03-31T04:20:44.897Z,99.90
2017-03-31T04:21:44.186Z,99.90
2017-03-31T04:22:42.647Z,99.90
2017-03-31T04:23:41.132Z,99.90
2017-03-31T04:24:39.903Z,99.90
2017-03-31T04:25:39.168Z,99.90
2017-03-31T04:26:37.672Z,99.90
2017-03-31T04:27:36.931Z,99.90
2017-03-31T04:28:36.223Z,99.90
2017-03-31T04:29:35.542Z,99.90
2017-03-31T04:30:35.077Z,99.90
2017-03-31T04:31:33.574Z,99.90
2017-03-31T04:32:32.821Z,99.90
2017-03-31T04:33:31.299Z,99.90
2017-03-31T04:34:30.558Z,99.90
2017-03-31T04:35:29.889Z,99.90
2017-03-31T04:36:29.451Z,99.90
2017-03-31T04:37:27.952Z,99.90
2017-03-31T04:38:27.201Z,99.90
2017-03-31T04:39:25.740Z,99.90
2017-03-31T04:40:24.287Z,99.90
2017-03-31T04:41:23.575Z,99.90
2017-03-31T04:42:22.988Z,99.90
2017-03-31T04:43:21.535Z,99.90
2017-03-31T04:44:20.046Z,99.90
2017-03-31T04:45:18.587Z,99.90
2017-03-31T04:46:17.129Z,99.90
2017-03-31T04:47:16.432Z,99.90
2017-03-31T04:48:16.156Z,99.90
2017-03-31T04:49:15.400Z,99.90
2017-03-31T04:50:13.877Z,99.90
2017-03-31T04:51:13.125Z,99.90
2017-03-31T04:52:11.592Z,99.90
2017-03-31T04:53:10.826Z,99.90
2017-03-31T04:54:10.352Z,99.90
2017-03-31T04:55:08.813Z,99.90
2017-03-31T04:56:08.088Z,99.90
2017-03-31T04:57:06.551Z,99.90
2017-03-31T04:58:05.075Z,99.90
2017-03-31T04:59:03.553Z,99.90
2017-03-31T05:00:02.441Z,99.90
2017-03-31T05:01:01.681Z,99.90
2017-03-31T05:02:00.902Z,99.90
2017-03-31T05:02:59.395Z,99.90
2017-03-31T05:03:58.610Z,99.90
2017-03-31T05:04:57.828Z,99.90
2017-03-31T05:05:57.447Z,99.90
2017-03-31T05:06:56.166Z,99.90
2017-03-31T05:07:54.730Z,99.90
2017-03-31T05:08:54.064Z,99.90
2017-03-31T05:09:52.536Z,99.90
2017-03-31T05:10:51.830Z,99.90
2017-03-31T05:11:50.626Z,99.90
2017-03-31T05:12:49.869Z,99.90
2017-03-31T05:13:48.346Z,99.90
2017-03-31T05:14:46.879Z,99.90
2017-03-31T05:15:45.447Z,99.90
2017-03-31T05:16:43.934Z,99.90
2017-03-31T05:17:42.796Z,99.90
2017-03-31T05:18:41.264Z,99.90
2017-03-31T05:19:39.737Z,99.90
2017-03-31T05:20:38.969Z,99.90
2017-03-31T05:21:37.500Z,99.90
2017-03-31T05:22:36.789Z,99.90
2017-03-31T05:23:36.345Z,99.90
2017-03-31T05:24:35.724Z,99.90
2017-03-31T05:25:35.057Z,99.90
2017-03-31T05:26:34.301Z,99.90
2017-03-31T05:27:33.543Z,99.90
2017-03-31T05:28:32.804Z,99.90
2017-03-31T05:29:31.567Z,99.90
2017-03-31T05:30:30.810Z,99.90
2017-03-31T05:31:29.451Z,99.90
2017-03-31T05:32:28.068Z,99.90
2017-03-31T05:33:27.353Z,99.90
2017-03-31T05:34:26.636Z,99.90
2017-03-31T05:35:25.551Z,99.90
2017-03-31T05:36:24.801Z,99.90
2017-03-31T05:37:23.329Z,99.90
2017-03-31T05:38:22.584Z,99.00
2017-03-31T05:39:21.859Z,98.70
2017-03-31T05:40:21.096Z,98.10
2017-03-31T05:41:19.886Z,98.60
2017-03-31T05:42:19.183Z,98.10
2017-03-31T05:43:18.442Z,98.30
2017-03-31T05:44:16.934Z,98.30
2017-03-31T05:45:15.455Z,97.00
2017-03-31T05:46:13.965Z,96.30
2017-03-31T05:47:13.535Z,94.60
2017-03-31T05:48:11.997Z,94.60
2017-03-31T05:49:11.234Z,94.20
2017-03-31T05:50:10.491Z,94.00
2017-03-31T05:51:08.969Z,94.00
2017-03-31T05:52:08.217Z,93.40
2017-03-31T05:53:07.083Z,93.10
2017-03-31T05:54:05.627Z,92.10
2017-03-31T05:55:04.133Z,92.10
2017-03-31T05:56:03.384Z,91.80
2017-03-31T05:57:01.951Z,91.80
2017-03-31T05:58:00.441Z,90.00
2017-03-31T05:58:59.322Z,88.50
2017-03-31T05:59:57.866Z,89.20
2017-03-31T06:00:56.345Z,89.70
2017-03-31T06:01:55.611Z,88.30
2017-03-31T06:02:54.256Z,88.30
2017-03-31T06:03:52.776Z,88.20
2017-03-31T06:04:51.618Z,88.40
2017-03-31T06:05:51.041Z,85.00
2017-03-31T06:06:49.585Z,85.00
2017-03-31T06:07:48.117Z,86.20
2017-03-31T06:08:47.385Z,84.20
2017-03-31T06:09:46.617Z,85.00
2017-03-31T06:10:45.389Z,84.80
2017-03-31T06:11:43.860Z,85.40
2017-03-31T06:12:43.100Z,81.60
2017-03-31T06:13:42.392Z,84.40
2017-03-31T06:14:40.848Z,84.40
2017-03-31T06:15:39.501Z,83.10
2017-03-31T06:16:39.035Z,79.60
2017-03-31T06:17:37.569Z,79.60
2017-03-31T06:18:36.041Z,80.40
2017-03-31T06:19:35.108Z,78.40
2017-03-31T06:20:35.211Z,77.50
2017-03-31T06:21:34.464Z,79.40
2017-03-31T06:22:33.383Z,79.30
2017-03-31T06:23:31.891Z,75.40
2017-03-31T06:24:30.590Z,77.00
2017-03-31T06:25:29.050Z,74.60
2017-03-31T06:26:27.521Z,75.40
2017-03-31T06:27:26.980Z,74.10
2017-03-31T06:28:25.841Z,74.00
2017-03-31T06:29:25.092Z,69.20
2017-03-31T06:30:24.384Z,67.40
2017-03-31T06:31:22.908Z,67.40
2017-03-31T06:32:22.182Z,66.00
2017-03-31T06:33:20.650Z,65.80
2017-03-31T06:34:19.474Z,64.30
2017-03-31T06:35:17.953Z,63.00
2017-03-31T06:36:16.456Z,63.00
2017-03-31T06:37:14.925Z,62.00
2017-03-31T06:38:13.447Z,57.30
2017-03-31T06:39:12.753Z,55.00
2017-03-31T06:40:12.341Z,54.70
2017-03-31T06:41:11.643Z,52.80
2017-03-31T06:42:10.889Z,50.90
2017-03-31T06:43:09.464Z,50.80
2017-03-31T06:44:07.965Z,50.90
2017-03-31T06:45:07.241Z,49.40
2017-03-31T06:46:06.088Z,49.40
2017-03-31T06:47:05.322Z,50.00
2017-03-31T06:48:04.595Z,48.30
2017-03-31T06:49:03.085Z,48.30
2017-03-31T06:50:03.556Z,46.00
2017-03-31T06:51:02.050Z,45.90
2017-03-31T06:52:01.591Z,44.60
2017-03-31T06:53:00.072Z,44.50
2017-03-31T06:53:58.788Z,44.30
2017-03-31T06:54:58.048Z,42.90
2017-03-31T06:55:57.284Z,42.40
2017-03-31T06:56:55.762Z,42.40
2017-03-31T06:57:54.529Z,42.20
2017-03-31T06:58:53.765Z,40.00
2017-03-31T06:59:53.001Z,40.50
2017-03-31T07:00:51.461Z,40.50
2017-03-31T07:01:50.700Z,37.90
2017-03-31T07:02:59.279Z,39.00
2017-03-31T07:03:58.782Z,37.90
2017-03-31T07:04:58.041Z,38.10
2017-03-31T07:05:57.466Z,38.00
2017-03-31T07:06:55.944Z,38.00
2017-03-31T07:07:54.505Z,38.60
2017-03-31T07:08:53.405Z,36.50
2017-03-31T07:09:52.652Z,37.90
2017-03-31T07:10:51.905Z,38.20
2017-03-31T07:11:50.417Z,38.20
2017-03-31T07:12:48.927Z,38.50
2017-03-31T07:13:47.411Z,37.20
2017-03-31T07:14:46.241Z,36.80
2017-03-31T07:15:44.733Z,36.20
2017-03-31T07:16:43.218Z,35.40
2017-03-31T07:17:42.475Z,36.80
2017-03-31T07:18:40.955Z,36.80
2017-03-31T07:19:40.216Z,37.00
2017-03-31T07:20:39.093Z,36.60
2017-03-31T07:21:37.584Z,35.40
2017-03-31T07:22:37.104Z,35.90
2017-03-31T07:23:36.340Z,37.60
2017-03-31T07:24:35.573Z,36.50
2017-03-31T07:25:34.109Z,37.20
2017-03-31T07:26:33.709Z,36.80
2017-03-31T07:27:32.950Z,36.70
2017-03-31T07:28:31.471Z,36.60
2017-03-31T07:29:30.015Z,37.00
2017-03-31T07:30:29.257Z,36.80
2017-03-31T07:31:27.783Z,36.80
2017-03-31T07:32:26.651Z,36.10
2017-03-31T07:33:25.916Z,36.60
2017-03-31T07:34:24.412Z,36.50
2017-03-31T07:35:22.945Z,36.80
2017-03-31T07:36:21.441Z,36.30
2017-03-31T07:37:20.701Z,34.50
2017-03-31T07:38:20.253Z,35.10
2017-03-31T07:39:18.712Z,34.40
2017-03-31T07:40:18.369Z,33.70
2017-03-31T07:41:17.627Z,33.40
2017-03-31T07:42:16.104Z,33.40
2017-03-31T07:43:15.360Z,33.70
2017-03-31T07:44:14.151Z,33.70
2017-03-31T07:45:13.423Z,33.40
2017-03-31T07:46:11.913Z,33.30
2017-03-31T07:47:11.173Z,35.50
2017-03-31T07:48:09.642Z,35.50
2017-03-31T07:49:08.885Z,33.40
2017-03-31T07:50:07.759Z,33.40
2017-03-31T07:51:07.050Z,33.90
2017-03-31T07:52:05.549Z,34.00
2017-03-31T07:53:04.020Z,33.60
2017-03-31T07:54:02.519Z,33.60
2017-03-31T07:55:01.003Z,34.00
2017-03-31T07:55:59.791Z,34.60
2017-03-31T07:56:58.368Z,33.80
2017-03-31T07:57:56.918Z,33.20
2017-03-31T07:58:55.435Z,32.40
2017-03-31T07:59:54.709Z,33.40
2017-03-31T08:00:53.941Z,32.80
2017-03-31T08:01:52.729Z,32.70
2017-03-31T08:02:51.223Z,34.50
2017-03-31T08:03:49.694Z,32.40
2017-03-31T08:04:48.956Z,32.50
2017-03-31T08:05:48.197Z,32.10
2017-03-31T08:06:46.680Z,31.60
2017-03-31T08:07:46.273Z,30.90
2017-03-31T08:08:44.784Z,30.90
2017-03-31T08:09:43.269Z,30.10
2017-03-31T08:10:42.519Z,27.80
2017-03-31T08:11:41.017Z,27.80
2017-03-31T08:12:40.342Z,28.00
2017-03-31T08:13:40.061Z,28.00
2017-03-31T08:14:39.329Z,28.20
2017-03-31T08:15:37.848Z,28.20
2017-03-31T08:16:36.325Z,27.70
2017-03-31T08:17:34.883Z,27.20
2017-03-31T08:18:33.521Z,26.60
2017-03-31T08:19:32.272Z,25.80
2017-03-31T08:20:30.738Z,25.80
2017-03-31T08:21:29.210Z,26.20
2017-03-31T08:22:29.013Z,25.30
2017-03-31T08:23:27.485Z,25.30
2017-03-31T08:24:25.990Z,25.60
2017-03-31T08:25:24.764Z,26.00
2017-03-31T08:26:23.228Z,26.60
2017-03-31T08:27:21.704Z,27.20
2017-03-31T08:28:20.211Z,27.00
2017-03-31T08:29:18.720Z,26.10
2017-03-31T08:30:17.208Z,25.10
2017-03-31T08:31:15.989Z,25.30
2017-03-31T08:32:14.468Z,25.60
2017-03-31T08:33:13.703Z,26.90
2017-03-31T08:34:12.246Z,26.90
2017-03-31T08:35:11.503Z,25.40
2017-03-31T08:36:09.969Z,25.40
2017-03-31T08:37:08.716Z,25.70
2017-03-31T08:38:07.210Z,24.60
2017-03-31T08:39:05.681Z,25.10
2017-03-31T08:40:05.061Z,25.00
2017-03-31T08:41:04.440Z,25.50
2017-03-31T08:42:02.936Z,25.50
2017-03-31T08:43:02.483Z,25.60
2017-03-31T08:44:01.009Z,25.60
2017-03-31T08:44:59.510Z,26.10
2017-03-31T08:45:57.997Z,26.60
2017-03-31T08:46:56.501Z,26.30
2017-03-31T08:47:55.741Z,26.00
2017-03-31T08:48:54.593Z,26.00
2017-03-31T08:49:53.853Z,26.40
2017-03-31T08:50:52.327Z,26.40
2017-03-31T08:51:50.955Z,26.40
2017-03-31T08:52:50.281Z,25.90
2017-03-31T08:53:48.793Z,25.90
2017-03-31T08:54:47.541Z,26.50
2017-03-31T08:55:46.028Z,27.00
2017-03-31T08:56:44.509Z,27.70
2017-03-31T08:57:43.773Z,26.90
2017-03-31T08:58:42.253Z,26.90
2017-03-31T08:59:40.716Z,26.90
2017-03-31T09:00:40.359Z,28.50
2017-03-31T09:01:38.844Z,28.00
2017-03-31T09:02:37.308Z,26.60
2017-03-31T09:03:35.828Z,25.60
2017-03-31T09:04:35.204Z,26.20
2017-03-31T09:05:34.454Z,26.10
2017-03-31T09:06:33.976Z,27.50
2017-03-31T09:07:33.197Z,25.80
2017-03-31T09:08:31.681Z,25.70
2017-03-31T09:09:30.255Z,25.80
2017-03-31T09:10:28.730Z,26.10
2017-03-31T09:11:27.229Z,26.40
2017-03-31T09:12:26.775Z,23.80
2017-03-31T09:13:25.980Z,24.20
2017-03-31T09:14:24.453Z,24.20
2017-03-31T09:15:23.862Z,23.30
2017-03-31T09:16:23.115Z,24.00
2017-03-31T09:17:21.586Z,24.10
2017-03-31T09:18:21.124Z,22.50
2017-03-31T09:19:19.571Z,22.70
2017-03-31T09:20:18.061Z,22.60
2017-03-31T09:21:16.550Z,22.70
2017-03-31T09:22:15.063Z,22.80
2017-03-31T09:23:14.320Z,23.70
2017-03-31T09:24:13.858Z,24.10
2017-03-31T09:25:12.333Z,24.10
2017-03-31T09:26:10.835Z,24.50
2017-03-31T09:27:10.102Z,24.50
2017-03-31T09:28:08.630Z,25.10
2017-03-31T09:29:07.223Z,25.50
2017-03-31T09:30:05.996Z,26.70
2017-03-31T09:31:04.481Z,27.80
2017-03-31T09:32:03.016Z,25.50
2017-03-31T09:33:01.491Z,25.20
2017-03-31T09:33:59.976Z,25.30
2017-03-31T09:34:59.213Z,24.40
2017-03-31T09:35:57.965Z,24.30
2017-03-31T09:36:57.280Z,25.40
2017-03-31T09:37:55.736Z,25.50
2017-03-31T09:38:54.213Z,26.40
2017-03-31T09:39:52.760Z,23.20
2017-03-31T09:40:51.352Z,23.70
2017-03-31T09:41:50.331Z,22.40
2017-03-31T09:42:48.791Z,23.10
2017-03-31T09:43:48.010Z,23.60
2017-03-31T09:44:47.236Z,23.40
2017-03-31T09:45:45.717Z,23.40
2017-03-31T09:46:44.180Z,22.30
2017-03-31T09:47:42.948Z,24.00
2017-03-31T09:48:41.421Z,26.00
2017-03-31T09:49:39.912Z,24.90
2017-03-31T09:50:38.418Z,22.90
2017-03-31T09:51:37.663Z,23.10
2017-03-31T09:52:36.137Z,22.70
2017-03-31T09:53:34.968Z,22.60
2017-03-31T09:54:33.431Z,23.70
2017-03-31T09:55:31.889Z,23.60
2017-03-31T09:56:30.344Z,22.90
2017-03-31T09:57:28.833Z,23.00
2017-03-31T09:58:27.321Z,21.40
2017-03-31T09:59:26.844Z,21.50
2017-03-31T10:00:26.110Z,21.10
2017-03-31T10:01:24.622Z,20.70
2017-03-31T10:02:23.173Z,22.70
2017-03-31T10:03:21.643Z,22.30
2017-03-31T10:04:20.138Z,24.40
2017-03-31T10:05:19.008Z,21.60
2017-03-31T10:06:17.465Z,20.80
2017-03-31T10:07:15.923Z,21.10
2017-03-31T10:08:14.408Z,20.30
2017-03-31T10:09:12.909Z,20.70
2017-03-31T10:10:11.417Z,20.70
2017-03-31T10:11:10.308Z,20.60
2017-03-31T10:12:08.932Z,20.90
2017-03-31T10:13:08.505Z,21.70
2017-03-31T10:14:06.989Z,21.70
2017-03-31T10:15:06.313Z,22.30
2017-03-31T10:16:04.769Z,21.80
2017-03-31T10:17:03.541Z,22.10
2017-03-31T10:18:02.045Z,21.50
2017-03-31T10:19:00.661Z,23.30
2017-03-31T10:19:59.133Z,22.30
2017-03-31T10:20:57.638Z,21.80
2017-03-31T10:21:56.156Z,21.80
2017-03-31T10:22:54.964Z,21.10
2017-03-31T10:23:53.440Z,22.00
2017-03-31T10:24:51.889Z,20.60
2017-03-31T10:25:50.385Z,21.20
2017-03-31T10:26:49.624Z,20.10
2017-03-31T10:27:48.858Z,19.10
2017-03-31T10:28:47.695Z,18.80
2017-03-31T10:29:46.157Z,18.30
2017-03-31T10:30:44.633Z,20.20
2017-03-31T10:31:43.852Z,18.60
2017-03-31T10:32:43.084Z,18.20
2017-03-31T10:33:41.555Z,18.20
2017-03-31T10:34:40.344Z,19.40
2017-03-31T10:35:38.884Z,18.80
2017-03-31T10:36:37.345Z,19.80
2017-03-31T10:37:35.817Z,19.20
2017-03-31T10:38:34.343Z,19.40
2017-03-31T10:39:33.589Z,19.50
2017-03-31T10:40:32.442Z,20.00
2017-03-31T10:41:30.928Z,19.60
2017-03-31T10:42:29.384Z,19.90
2017-03-31T10:43:28.672Z,19.70
2017-03-31T10:44:27.184Z,19.70
2017-03-31T10:45:25.788Z,20.20
2017-03-31T10:46:24.588Z,20.50
2017-03-31T10:47:23.078Z,21.70
2017-03-31T10:48:21.565Z,20.80
2017-03-31T10:49:20.032Z,20.70
2017-03-31T10:50:18.540Z,19.40
2017-03-31T10:51:17.028Z,19.10
2017-03-31T10:52:16.677Z,18.80
2017-03-31T10:53:21.905Z,18.70
2017-03-31T10:54:20.396Z,19.20
2017-03-31T10:55:18.880Z,19.30
2017-03-31T10:56:18.136Z,19.30
2017-03-31T10:57:16.980Z,19.20
2017-03-31T10:58:15.528Z,19.80
2017-03-31T10:59:14.000Z,19.70
2017-03-31T11:00:12.573Z,19.30
2017-03-31T11:01:11.066Z,20.40
2017-03-31T11:02:09.529Z,19.70
2017-03-31T11:03:11.330Z,19.00
2017-03-31T11:04:10.717Z,19.30
2017-03-31T11:05:09.213Z,19.30
2017-03-31T11:06:07.701Z,19.50
2017-03-31T11:07:06.161Z,19.50
2017-03-31T11:08:04.658Z,19.80
2017-03-31T11:09:03.892Z,19.80
2017-03-31T11:10:02.405Z,20.60
2017-03-31T11:11:01.657Z,19.70
2017-03-31T11:12:00.124Z,19.70
2017-03-31T11:12:59.566Z,19.00
2017-03-31T11:13:58.032Z,19.10
2017-03-31T11:14:57.646Z,19.80
2017-03-31T11:15:56.151Z,19.80
2017-03-31T11:16:54.633Z,19.10
2017-03-31T11:17:53.849Z,20.00
2017-03-31T11:18:52.317Z,20.00
2017-03-31T11:19:51.641Z,19.00
2017-03-31T11:20:50.425Z,19.00
2017-03-31T11:21:49.677Z,19.90
2017-03-31T11:22:48.164Z,19.90
2017-03-31T11:23:46.664Z,20.00
2017-03-31T11:24:46.084Z,19.70
2017-03-31T11:25:44.636Z,19.70
2017-03-31T11:26:43.449Z,20.00
2017-03-31T11:27:42.698Z,19.80
2017-03-31T11:28:41.176Z,19.80
2017-03-31T11:29:40.303Z,20.70
2017-03-31T11:30:38.770Z,20.30
2017-03-31T11:31:38.086Z,20.00
2017-03-31T11:32:37.103Z,19.90
2017-03-31T11:33:35.589Z,19.70
2017-03-31T11:34:34.863Z,20.00
2017-03-31T11:35:33.343Z,19.90
2017-03-31T11:36:32.570Z,21.20
2017-03-31T11:37:31.073Z,20.50
2017-03-31T11:38:29.920Z,20.90
2017-03-31T11:39:28.402Z,20.50
2017-03-31T11:40:27.113Z,20.90
2017-03-31T11:41:26.345Z,20.20
2017-03-31T11:42:24.828Z,20.20
2017-03-31T11:43:23.349Z,20.40
2017-03-31T11:44:22.149Z,20.70
2017-03-31T11:45:20.932Z,21.80
2017-03-31T11:46:19.398Z,21.50
2017-03-31T11:47:18.629Z,20.00
2017-03-31T11:48:17.227Z,20.20
2017-03-31T11:49:15.761Z,20.90
2017-03-31T11:50:15.300Z,21.30
2017-03-31T11:51:13.799Z,21.20
2017-03-31T11:52:13.040Z,20.50
2017-03-31T11:53:11.492Z,20.50
2017-03-31T11:54:10.737Z,19.70
2017-03-31T11:55:09.962Z,19.80
2017-03-31T11:56:09.557Z,20.30
2017-03-31T11:57:08.008Z,20.30
2017-03-31T11:58:06.501Z,20.70
2017-03-31T11:59:05.712Z,21.50
2017-03-31T12:00:04.943Z,21.60
2017-03-31T12:01:03.525Z,21.30
2017-03-31T12:02:02.392Z,19.60
2017-03-31T12:03:01.625Z,20.30
2017-03-31T12:04:00.093Z,20.30
2017-03-31T12:04:59.362Z,21.60
2017-03-31T12:05:57.883Z,21.60
2017-03-31T12:06:56.344Z,21.50
2017-03-31T12:07:55.116Z,22.30
2017-03-31T12:08:53.573Z,21.00
2017-03-31T12:09:52.101Z,22.10
2017-03-31T12:10:51.393Z,22.00
2017-03-31T12:11:50.620Z,21.70
2017-03-31T12:12:50.069Z,21.70
2017-03-31T12:13:49.796Z,22.20
2017-03-31T12:14:48.338Z,22.20
2017-03-31T12:15:46.807Z,22.50
2017-03-31T12:16:45.285Z,23.30
2017-03-31T12:17:43.767Z,22.50
2017-03-31T12:18:43.084Z,23.20
2017-03-31T12:19:41.932Z,23.30
2017-03-31T12:20:40.400Z,21.70
2017-03-31T12:21:38.921Z,21.30
2017-03-31T12:22:37.427Z,20.60
2017-03-31T12:23:35.930Z,21.10
2017-03-31T12:24:35.229Z,20.80
2017-03-31T12:25:34.897Z,20.60
2017-03-31T12:26:33.352Z,20.70
2017-03-31T12:27:31.812Z,20.80
2017-03-31T12:28:30.316Z,20.80
2017-03-31T12:29:29.553Z,21.30
2017-03-31T12:30:28.029Z,21.30
2017-03-31T12:31:26.792Z,22.20
2017-03-31T12:32:25.285Z,21.30
2017-03-31T12:33:24.535Z,21.30
2017-03-31T12:34:23.011Z,21.30
2017-03-31T12:35:21.508Z,22.10
2017-03-31T12:36:20.873Z,21.40
2017-03-31T12:37:19.835Z,21.50
2017-03-31T12:38:19.087Z,22.70